Wetterdaten: Woche 22.10.18 - 28.10.18 (KW43)
Datum Zeit Temp. Aussen Temp. o. S. +5cm Feuchte Auss Luftdruck Regen Sonnenschein Regendauer Solar Windben Empfang
22.10.2018 00:00 7,0 C 7,2 C 6,9 C 91 % 1024,8 hPa 0,0 l/m 0,00 h 0,00 h 0 W/m 0,0 km/h (0 Bft) 96,50 %
22.10.2018 01:00 7,7 C 8,1 C 7,5 C 93 % 1025,0 hPa 0,0 l/m 0,00 h 0,00 h 0 W/m 0,1 km/h (0 Bft) 99,27 %
22.10.2018 02:00 8,6 C 9,0 C 8,7 C 93 % 1024,8 hPa 0,0 l/m 0,00 h 0,00 h 0 W/m 2,3 km/h (1 Bft) 95,68 %
22.10.2018 03:00 9,1 C 8,8 C 8,4 C 90 % 1024,8 hPa 0,0 l/m 0,00 h 0,00 h 0 W/m 0,7 km/h (0 Bft) 97,67 %
22.10.2018 04:00 9,1 C 8,6 C 8,2 C 88 % 1024,9 hPa 0,0 l/m 0,00 h 0,00 h 0 W/m 0,8 km/h (0 Bft) 98,45 %
22.10.2018 05:00 9,1 C 8,9 C 8,3 C 88 % 1024,8 hPa 0,0 l/m 0,00 h 0,00 h 0 W/m 0,9 km/h (0 Bft) 97,58 %
22.10.2018 06:00 9,3 C 8,9 C 8,8 C 88 % 1025,1 hPa 0,0 l/m 0,00 h 0,00 h 0 W/m 2,5 km/h (1 Bft) 96,97 %
22.10.2018 07:00 9,4 C 8,9 C 8,9 C 88 % 1025,6 hPa 0,0 l/m 0,00 h 0,00 h 0 W/m 1,1 km/h (1 Bft) 97,79 %
22.10.2018 08:00 9,6 C 9,3 C 8,9 C 88 % 1026,5 hPa 0,0 l/m 0,00 h 0,00 h 6 W/m 0,0 km/h (0 Bft) 97,75 %
22.10.2018 09:00 10,0 C 9,0 C 8,5 C 90 % 1027,4 hPa 0,4 l/m 0,00 h 0,37 h 17 W/m 3,0 km/h (1 Bft) 97,95 %
22.10.2018 10:00 10,6 C 9,9 C 9,4 C 94 % 1028,4 hPa 0,2 l/m 0,00 h 0,00 h 40 W/m 10,7 km/h (2 Bft) 96,66 %
22.10.2018 11:00 11,2 C 10,6 C 9,9 C 96 % 1029,1 hPa 0,0 l/m 0,00 h 0,00 h 117 W/m 18,3 km/h (3 Bft) 97,42 %
22.10.2018 12:00 11,9 C 12,2 C 11,1 C 95 % 1029,5 hPa 0,0 l/m 0,30 h 0,00 h 214 W/m 14,6 km/h (3 Bft) 97,95 %
22.10.2018 13:00 13,5 C 13,9 C 12,4 C 82 % 1029,5 hPa 0,0 l/m 0,40 h 0,00 h 263 W/m 14,1 km/h (3 Bft) 96,03 %
22.10.2018 14:00 14,4 C 14,9 C 13,0 C 72 % 1029,5 hPa 0,0 l/m 0,13 h 0,00 h 162 W/m 15,6 km/h (3 Bft) 98,02 %
22.10.2018 15:00 15,0 C 14,5 C 13,1 C 66 % 1029,4 hPa 0,0 l/m 0,33 h 0,00 h 179 W/m 16,1 km/h (3 Bft) 98,09 %
22.10.2018 16:00 14,8 C 14,4 C 13,1 C 67 % 1029,5 hPa 0,0 l/m 0,23 h 0,00 h 137 W/m 12,5 km/h (3 Bft) 96,46 %
22.10.2018 17:00 13,9 C 13,1 C 12,2 C 69 % 1030,0 hPa 0,0 l/m 0,10 h 0,00 h 45 W/m 10,1 km/h (2 Bft) 97,60 %
22.10.2018 18:00 12,8 C 11,3 C 11,1 C 71 % 1030,3 hPa 0,0 l/m 0,00 h 0,00 h 10 W/m 7,5 km/h (2 Bft) 99,08 %
22.10.2018 19:00 11,2 C 9,0 C 8,7 C 76 % 1030,6 hPa 0,0 l/m 0,00 h 0,00 h 0 W/m 1,3 km/h (1 Bft) 97,28 %
22.10.2018 20:00 9,3 C 7,5 C 7,4 C 80 % 1031,2 hPa 0,0 l/m 0,00 h 0,00 h 0 W/m 2,3 km/h (1 Bft) 96,23 %
22.10.2018 21:00 8,2 C 7,0 C 6,7 C 82 % 1031,3 hPa 0,0 l/m 0,00 h 0,00 h 0 W/m 0,0 km/h (0 Bft) 97,84 %
22.10.2018 22:00 7,2 C 5,9 C 6,0 C 84 % 1031,2 hPa 0,0 l/m 0,00 h 0,00 h 0 W/m 0,2 km/h (0 Bft) 96,44 %
22.10.2018 23:00 6,4 C 5,4 C 5,5 C 87 % 1031,2 hPa 0,0 l/m 0,00 h 0,00 h 0 W/m 1,8 km/h (1 Bft) 98,83 %
23.10.2018 00:00 5,8 C 4,6 C 4,7 C 88 % 1031,1 hPa 0,0 l/m 0,00 h 0,00 h 0 W/m 0,2 km/h (0 Bft) 98,25 %
23.10.2018 01:00 5,0 C 4,0 C 4,1 C 89 % 1030,5 hPa 0,0 l/m 0,00 h 0,00 h 0 W/m 0,1 km/h (0 Bft) 95,88 %
23.10.2018 02:00 4,7 C 4,1 C 4,4 C 91 % 1029,7 hPa 0,0 l/m 0,00 h 0,00 h 0 W/m 2,1 km/h (1 Bft) 96,58 %
23.10.2018 03:00 5,0 C 4,9 C 5,0 C 92 % 1028,4 hPa 0,0 l/m 0,00 h 0,00 h 0 W/m 4,8 km/h (1 Bft) 98,97 %
23.10.2018 04:00 5,5 C 5,4 C 5,6 C 92 % 1027,7 hPa 0,0 l/m 0,00 h 0,00 h 0 W/m 5,7 km/h (1 Bft) 96,91 %
23.10.2018 05:00 5,8 C 5,6 C 5,6 C 91 % 1027,0 hPa 0,0 l/m 0,00 h 0,00 h 0 W/m 7,6 km/h (2 Bft) 97,54 %
23.10.2018 06:00 6,1 C 5,8 C 5,8 C 91 % 1026,1 hPa 0,0 l/m 0,00 h 0,00 h 0 W/m 8,5 km/h (2 Bft) 95,80 %
23.10.2018 07:00 6,5 C 6,3 C 6,3 C 91 % 1025,2 hPa 0,0 l/m 0,00 h 0,00 h 0 W/m 9,7 km/h (2 Bft) 97,52 %
23.10.2018 08:00 7,4 C 7,4 C 7,0 C 90 % 1025,0 hPa 0,0 l/m 0,00 h 0,00 h 11 W/m 11,9 km/h (2 Bft) 98,11 %
23.10.2018 09:00 8,4 C 8,1 C 7,8 C 88 % 1024,4 hPa 0,0 l/m 0,00 h 0,00 h 41 W/m 12,5 km/h (3 Bft) 97,58 %
23.10.2018 10:00 9,1 C 9,0 C 8,5 C 88 % 1024,0 hPa 0,0 l/m 0,00 h 0,00 h 54 W/m 13,5 km/h (3 Bft) 96,26 %
23.10.2018 11:00 10,0 C 10,0 C 9,4 C 86 % 1023,3 hPa 0,0 l/m 0,00 h 0,00 h 89 W/m 14,8 km/h (3 Bft) 98,89 %
23.10.2018 12:00 10,9 C 11,3 C 10,2 C 84 % 1022,4 hPa 0,0 l/m 0,33 h 0,00 h 190 W/m 17,2 km/h (3 Bft) 96,66 %
23.10.2018 13:00 12,4 C 13,1 C 11,6 C 81 % 1021,3 hPa 0,0 l/m 0,73 h 0,00 h 333 W/m 19,1 km/h (3 Bft) 97,17 %
23.10.2018 14:00 13,4 C 13,1 C 12,2 C 78 % 1020,9 hPa 0,0 l/m 0,07 h 0,00 h 139 W/m 17,4 km/h (3 Bft) 99,47 %
23.10.2018 15:00 13,7 C 13,4 C 12,3 C 78 % 1020,6 hPa 0,0 l/m 0,07 h 0,00 h 81 W/m 14,8 km/h (3 Bft) 96,00 %
23.10.2018 16:00 13,9 C 13,3 C 12,7 C 79 % 1020,3 hPa 0,0 l/m 0,00 h 0,00 h 36 W/m 17,6 km/h (3 Bft) 97,52 %
23.10.2018 17:00 13,8 C 13,1 C 12,7 C 80 % 1020,5 hPa 0,0 l/m 0,00 h 0,00 h 12 W/m 21,8 km/h (4 Bft) 98,33 %
23.10.2018 18:00 13,5 C 12,8 C 12,2 C 81 % 1021,0 hPa 0,0 l/m 0,00 h 0,00 h 3 W/m 20,3 km/h (4 Bft) 96,47 %
23.10.2018 19:00 13,1 C 12,2 C 12,0 C 83 % 1021,2 hPa 0,0 l/m 0,00 h 0,00 h 0 W/m 18,7 km/h (3 Bft) 98,78 %
23.10.2018 20:00 13,1 C 12,2 C 12,1 C 85 % 1021,3 hPa 0,0 l/m 0,00 h 0,00 h 0 W/m 14,3 km/h (3 Bft) 96,53 %
23.10.2018 21:00 12,9 C 11,7 C 11,4 C 87 % 1021,2 hPa 0,0 l/m 0,00 h 0,17 h 0 W/m 14,8 km/h (3 Bft) 97,43 %
23.10.2018 22:00 12,2 C 11,2 C 11,1 C 92 % 1021,1 hPa 0,0 l/m 0,00 h 0,00 h 0 W/m 8,5 km/h (2 Bft) 99,36 %
23.10.2018 23:00 12,3 C 11,8 C 11,6 C 92 % 1020,8 hPa 0,0 l/m 0,00 h 0,00 h 0 W/m 10,7 km/h (2 Bft) 96,04 %
24.10.2018 00:00 12,6 C 12,2 C 11,7 C 91 % 1020,3 hPa 0,0 l/m 0,00 h 0,00 h 0 W/m 13,5 km/h (3 Bft) 96,61 %
24.10.2018 01:00 13,1 C 12,6 C 12,2 C 90 % 1019,9 hPa 0,0 l/m 0,00 h 0,00 h 0 W/m 17,7 km/h (3 Bft) 99,28 %
24.10.2018 02:00 13,4 C 12,8 C 12,2 C 90 % 1019,7 hPa 0,0 l/m 0,00 h 0,00 h 0 W/m 17,6 km/h (3 Bft) 97,49 %
24.10.2018 03:00 13,4 C 12,7 C 12,2 C 91 % 1019,5 hPa 0,0 l/m 0,00 h 0,00 h 0 W/m 20,6 km/h (4 Bft) 95,87 %
24.10.2018 04:00 13,6 C 13,1 C 12,6 C 91 % 1019,4 hPa 0,0 l/m 0,00 h 0,00 h 0 W/m 20,6 km/h (4 Bft) 98,79 %
24.10.2018 05:00 13,5 C 12,1 C 11,8 C 93 % 1019,5 hPa 0,2 l/m 0,00 h 0,23 h 0 W/m 15,2 km/h (3 Bft) 98,90 %
24.10.2018 06:00 13,1 C 12,1 C 11,7 C 95 % 1019,5 hPa 0,2 l/m 0,00 h 0,17 h 0 W/m 12,8 km/h (3 Bft) 96,34 %
24.10.2018 07:00 13,2 C 12,2 C 11,7 C 97 % 1019,5 hPa 0,0 l/m 0,00 h 0,10 h 0 W/m 13,6 km/h (3 Bft) 96,67 %
24.10.2018 08:00 13,3 C 12,2 C 12,0 C 97 % 1019,9 hPa 0,2 l/m 0,00 h 0,23 h 7 W/m 14,6 km/h (3 Bft) 99,08 %
24.10.2018 09:00 13,4 C 12,6 C 12,2 C 98 % 1020,7 hPa 0,0 l/m 0,00 h 0,03 h 34 W/m 19,1 km/h (3 Bft) 97,33 %
24.10.2018 10:00 13,7 C 12,8 C 12,8 C 98 % 1021,3 hPa 0,0 l/m 0,00 h 0,00 h 55 W/m 15,3 km/h (3 Bft) 95,63 %
24.10.2018 11:00 13,9 C 13,2 C 12,6 C 97 % 1021,9 hPa 0,4 l/m 0,00 h 0,50 h 118 W/m 18,4 km/h (3 Bft) 99,20 %
24.10.2018 12:00 14,4 C 15,0 C 13,1 C 95 % 1022,1 hPa 0,0 l/m 0,00 h 0,07 h 128 W/m 27,5 km/h (4 Bft) 96,68 %
24.10.2018 13:00 15,2 C 15,4 C 13,9 C 88 % 1022,1 hPa 0,0 l/m 0,37 h 0,00 h 222 W/m 23,8 km/h (4 Bft) 95,86 %
24.10.2018 14:00 15,7 C 15,8 C 14,2 C 85 % 1022,2 hPa 0,0 l/m 0,57 h 0,00 h 209 W/m 21,7 km/h (4 Bft) 98,74 %
24.10.2018 15:00 15,2 C 14,6 C 13,9 C 86 % 1022,0 hPa 0,0 l/m 0,00 h 0,00 h 82 W/m 17,7 km/h (3 Bft) 96,44 %
24.10.2018 16:00 14,8 C 14,3 C 13,6 C 87 % 1021,7 hPa 0,0 l/m 0,00 h 0,00 h 54 W/m 16,8 km/h (3 Bft) 97,68 %
24.10.2018 17:00 14,7 C 14,0 C 13,3 C 87 % 1021,9 hPa 0,0 l/m 0,00 h 0,00 h 20 W/m 13,2 km/h (3 Bft) 98,40 %
24.10.2018 18:00 14,4 C 13,6 C 13,0 C 88 % 1022,0 hPa 0,0 l/m 0,00 h 0,00 h 6 W/m 12,0 km/h (2 Bft) 95,89 %
24.10.2018 19:00 13,9 C 13,3 C 12,8 C 90 % 1022,3 hPa 0,0 l/m 0,00 h 0,00 h 0 W/m 15,5 km/h (3 Bft) 99,26 %
24.10.2018 20:00 13,6 C 12,8 C 12,3 C 90 % 1022,4 hPa 0,0 l/m 0,00 h 0,00 h 0 W/m 9,0 km/h (2 Bft) 97,36 %
24.10.2018 21:00 13,4 C 12,7 C 12,2 C 92 % 1022,3 hPa 0,0 l/m 0,00 h 0,00 h 0 W/m 10,1 km/h (2 Bft) 95,43 %
24.10.2018 22:00 13,1 C 11,8 C 11,7 C 93 % 1022,0 hPa 0,0 l/m 0,00 h 0,00 h 0 W/m 4,8 km/h (1 Bft) 99,62 %
24.10.2018 23:00 12,9 C 11,7 C 11,7 C 95 % 1021,6 hPa 0,4 l/m 0,00 h 0,27 h 0 W/m 1,9 km/h (1 Bft) 98,55 %
25.10.2018 00:00 12,9 C 11,7 C 11,7 C 96 % 1021,2 hPa 0,0 l/m 0,00 h 0,00 h 0 W/m 4,5 km/h (1 Bft) 90,88 %
25.10.2018 01:00 12,7 C 11,7 C 11,6 C 97 % 1020,7 hPa 0,0 l/m 0,00 h 0,00 h 0 W/m 5,0 km/h (1 Bft) 99,24 %
25.10.2018 02:00 12,6 C 11,7 C 11,7 C 97 % 1019,9 hPa 0,0 l/m 0,00 h 0,00 h 0 W/m 5,7 km/h (1 Bft) 97,60 %
25.10.2018 03:00 12,6 C 11,7 C 11,7 C 97 % 1019,0 hPa 0,0 l/m 0,00 h 0,00 h 0 W/m 5,6 km/h (1 Bft) 96,49 %
25.10.2018 04:00 12,4 C 11,7 C 11,7 C 98 % 1018,3 hPa 0,0 l/m 0,00 h 0,00 h 0 W/m 4,8 km/h (1 Bft) 97,91 %
25.10.2018 05:00 12,4 C 11,7 C 11,7 C 98 % 1017,8 hPa 0,0 l/m 0,00 h 0,00 h 0 W/m 3,3 km/h (1 Bft) 97,09 %
25.10.2018 06:00 12,4 C 11,7 C 11,7 C 98 % 1017,5 hPa 0,0 l/m 0,00 h 0,00 h 0 W/m 6,1 km/h (2 Bft) 98,01 %
25.10.2018 07:00 12,4 C 11,6 C 11,5 C 97 % 1017,2 hPa 0,0 l/m 0,00 h 0,03 h 0 W/m 7,8 km/h (2 Bft) 98,62 %
25.10.2018 08:00 11,8 C 11,1 C 10,7 C 93 % 1017,5 hPa 0,0 l/m 0,00 h 0,00 h 10 W/m 15,0 km/h (3 Bft) 95,35 %
25.10.2018 09:00 11,7 C 11,5 C 11,0 C 87 % 1017,8 hPa 0,0 l/m 0,00 h 0,00 h 24 W/m 12,5 km/h (3 Bft) 98,80 %
25.10.2018 10:00 12,2 C 12,1 C 11,4 C 85 % 1017,9 hPa 0,0 l/m 0,00 h 0,00 h 80 W/m 7,5 km/h (2 Bft) 99,54 %
25.10.2018 11:00 12,5 C 12,3 C 11,7 C 84 % 1017,8 hPa 0,0 l/m 0,00 h 0,00 h 100 W/m 7,9 km/h (2 Bft) 94,71 %
25.10.2018 12:00 12,9 C 12,9 C 12,0 C 82 % 1017,7 hPa 0,0 l/m 0,00 h 0,00 h 122 W/m 8,9 km/h (2 Bft) 98,49 %
25.10.2018 13:00 13,3 C 13,0 C 12,2 C 81 % 1017,2 hPa 0,0 l/m 0,00 h 0,00 h 130 W/m 9,8 km/h (2 Bft) 98,88 %
25.10.2018 14:00 13,3 C 12,9 C 12,2 C 81 % 1016,8 hPa 0,0 l/m 0,00 h 0,00 h 116 W/m 9,3 km/h (2 Bft) 96,42 %
25.10.2018 15:00 13,2 C 12,6 C 12,2 C 82 % 1016,4 hPa 0,0 l/m 0,00 h 0,00 h 58 W/m 7,6 km/h (2 Bft) 97,10 %
25.10.2018 16:00 12,9 C 12,3 C 12,0 C 82 % 1016,2 hPa 0,0 l/m 0,00 h 0,00 h 35 W/m 8,9 km/h (2 Bft) 98,02 %
25.10.2018 17:00 12,7 C 12,0 C 11,7 C 83 % 1016,0 hPa 0,0 l/m 0,00 h 0,00 h 12 W/m 7,2 km/h (2 Bft) 97,83 %
25.10.2018 18:00 12,4 C 11,7 C 11,4 C 84 % 1015,8 hPa 0,0 l/m 0,00 h 0,00 h 3 W/m 5,9 km/h (2 Bft) 96,94 %
25.10.2018 19:00 12,2 C 11,7 C 11,1 C 85 % 1015,7 hPa 0,0 l/m 0,00 h 0,00 h 0 W/m 5,4 km/h (1 Bft) 96,65 %
25.10.2018 20:00 11,9 C 11,3 C 11,1 C 85 % 1015,4 hPa 0,0 l/m 0,00 h 0,00 h 0 W/m 7,7 km/h (2 Bft) 98,13 %
25.10.2018 21:00 11,8 C 11,1 C 11,0 C 85 % 1015,0 hPa 0,0 l/m 0,00 h 0,00 h 0 W/m 8,2 km/h (2 Bft) 98,78 %
25.10.2018 22:00 11,6 C 10,8 C 10,6 C 85 % 1014,8 hPa 0,0 l/m 0,00 h 0,00 h 0 W/m 6,3 km/h (2 Bft) 95,44 %
25.10.2018 23:00 11,3 C 10,6 C 10,6 C 86 % 1014,5 hPa 0,0 l/m 0,00 h 0,00 h 0 W/m 8,7 km/h (2 Bft) 96,64 %
26.10.2018 00:00 11,2 C 10,3 C 10,2 C 86 % 1013,7 hPa 0,0 l/m 0,00 h 0,00 h 0 W/m 6,3 km/h (2 Bft) 99,29 %
26.10.2018 01:00 10,9 C 10,3 C 10,0 C 88 % 1012,9 hPa 0,0 l/m 0,00 h 0,00 h 0 W/m 5,3 km/h (1 Bft) 97,51 %
26.10.2018 02:00 10,8 C 10,0 C 10,0 C 88 % 1012,3 hPa 0,0 l/m 0,00 h 0,00 h 0 W/m 6,5 km/h (2 Bft) 95,68 %
26.10.2018 03:00 10,7 C 10,0 C 10,0 C 88 % 1011,5 hPa 0,0 l/m 0,00 h 0,00 h 0 W/m 4,1 km/h (1 Bft) 98,23 %
26.10.2018 04:00 10,5 C 10,0 C 10,0 C 87 % 1010,8 hPa 0,0 l/m 0,00 h 0,00 h 0 W/m 7,9 km/h (2 Bft) 97,23 %
26.10.2018 05:00 10,3 C 9,6 C 9,4 C 87 % 1010,2 hPa 0,0 l/m 0,00 h 0,00 h 0 W/m 9,8 km/h (2 Bft) 98,23 %
26.10.2018 06:00 10,0 C 9,4 C 9,4 C 88 % 1009,4 hPa 0,0 l/m 0,00 h 0,00 h 0 W/m 10,0 km/h (2 Bft) 96,85 %
26.10.2018 07:00 9,7 C 9,0 C 9,0 C 88 % 1008,5 hPa 0,0 l/m 0,00 h 0,00 h 0 W/m 9,8 km/h (2 Bft) 97,44 %
26.10.2018 08:00 9,5 C 9,1 C 8,9 C 89 % 1008,2 hPa 0,0 l/m 0,00 h 0,00 h 11 W/m 9,7 km/h (2 Bft) 98,63 %
26.10.2018 09:00 9,8 C 9,4 C 9,4 C 89 % 1008,0 hPa 0,0 l/m 0,00 h 0,00 h 20 W/m 9,9 km/h (2 Bft) 96,95 %
26.10.2018 10:00 9,9 C 9,6 C 9,4 C 89 % 1007,4 hPa 0,0 l/m 0,00 h 0,00 h 50 W/m 12,3 km/h (3 Bft) 96,08 %
26.10.2018 11:00 10,4 C 10,4 C 9,8 C 85 % 1006,7 hPa 0,0 l/m 0,00 h 0,00 h 109 W/m 15,0 km/h (3 Bft) 99,04 %
26.10.2018 12:00 11,0 C 10,9 C 10,1 C 83 % 1005,9 hPa 0,2 l/m 0,00 h 0,00 h 139 W/m 14,3 km/h (3 Bft) 97,83 %
26.10.2018 13:00 11,0 C 10,6 C 10,0 C 83 % 1005,3 hPa 0,0 l/m 0,00 h 0,00 h 82 W/m 13,5 km/h (3 Bft) 96,45 %
26.10.2018 14:00 11,1 C 10,9 C 10,5 C 84 % 1004,6 hPa 0,0 l/m 0,00 h 0,00 h 92 W/m 12,7 km/h (3 Bft) 97,56 %
26.10.2018 15:00 11,3 C 11,0 C 10,6 C 82 % 1004,0 hPa 0,0 l/m 0,03 h 0,00 h 74 W/m 12,0 km/h (2 Bft) 98,05 %
26.10.2018 16:00 11,5 C 11,3 C 10,6 C 81 % 1003,7 hPa 0,0 l/m 0,30 h 0,00 h 91 W/m 12,5 km/h (3 Bft) 97,59 %
26.10.2018 17:00 11,4 C 10,6 C 10,5 C 80 % 1003,4 hPa 0,0 l/m 0,00 h 0,20 h 20 W/m 11,3 km/h (2 Bft) 96,01 %
26.10.2018 18:00 10,6 C 8,9 C 9,2 C 84 % 1003,3 hPa 0,2 l/m 0,00 h 0,67 h 5 W/m 8,3 km/h (2 Bft) 98,80 %
26.10.2018 19:00 9,7 C 7,7 C 7,9 C 89 % 1003,7 hPa 0,2 l/m 0,00 h 0,80 h 0 W/m 13,5 km/h (3 Bft) 97,98 %
26.10.2018 20:00 8,5 C 7,2 C 7,2 C 91 % 1003,8 hPa 0,0 l/m 0,00 h 0,23 h 0 W/m 5,6 km/h (1 Bft) 97,77 %
26.10.2018 21:00 8,3 C 7,0 C 7,2 C 93 % 1003,9 hPa 0,2 l/m 0,00 h 0,40 h 0 W/m 4,1 km/h (1 Bft) 95,98 %
26.10.2018 22:00 7,9 C 6,7 C 7,2 C 93 % 1004,2 hPa 0,0 l/m 0,00 h 0,00 h 0 W/m 7,5 km/h (2 Bft) 97,61 %
26.10.2018 23:00 7,5 C 6,2 C 6,9 C 92 % 1004,4 hPa 0,0 l/m 0,00 h 0,00 h 0 W/m 7,2 km/h (2 Bft) 98,63 %
27.10.2018 00:00 6,8 C 5,6 C 6,3 C 93 % 1004,1 hPa 0,0 l/m 0,00 h 0,00 h 0 W/m 5,6 km/h (1 Bft) 96,66 %
27.10.2018 01:00 6,4 C 5,5 C 5,9 C 94 % 1004,3 hPa 0,0 l/m 0,00 h 0,00 h 0 W/m 4,0 km/h (1 Bft) 97,18 %
27.10.2018 02:00 6,0 C 4,9 C 5,6 C 95 % 1004,4 hPa 0,0 l/m 0,00 h 0,00 h 0 W/m 6,3 km/h (2 Bft) 96,87 %
27.10.2018 03:00 5,4 C 4,4 C 5,0 C 94 % 1004,5 hPa 0,0 l/m 0,00 h 0,00 h 0 W/m 6,8 km/h (2 Bft) 96,52 %
27.10.2018 04:00 5,3 C 4,4 C 5,0 C 94 % 1004,3 hPa 0,0 l/m 0,00 h 0,00 h 0 W/m 8,5 km/h (2 Bft) 99,46 %
27.10.2018 05:00 5,3 C 4,6 C 4,8 C 94 % 1004,5 hPa 0,2 l/m 0,00 h 0,33 h 0 W/m 7,3 km/h (2 Bft) 97,31 %
27.10.2018 06:00 5,1 C 4,2 C 4,4 C 94 % 1004,5 hPa 0,0 l/m 0,00 h 0,03 h 0 W/m 5,7 km/h (1 Bft) 95,39 %
27.10.2018 07:00 4,6 C 3,9 C 4,2 C 94 % 1004,6 hPa 0,0 l/m 0,00 h 0,00 h 0 W/m 4,6 km/h (1 Bft) 97,06 %
27.10.2018 08:00 4,3 C 3,9 C 3,9 C 95 % 1005,0 hPa 0,0 l/m 0,00 h 0,00 h 11 W/m 4,7 km/h (1 Bft) 99,01 %
27.10.2018 09:00 4,3 C 4,2 C 4,2 C 95 % 1005,3 hPa 0,0 l/m 0,00 h 0,07 h 29 W/m 5,8 km/h (2 Bft) 97,25 %
27.10.2018 10:00 5,2 C 6,3 C 5,2 C 96 % 1005,7 hPa 0,0 l/m 0,10 h 0,00 h 89 W/m 9,3 km/h (2 Bft) 97,03 %
27.10.2018 11:00 6,5 C 10,3 C 6,1 C 95 % 1006,1 hPa 0,0 l/m 0,10 h 0,00 h 131 W/m 5,8 km/h (2 Bft) 97,65 %
27.10.2018 12:00 8,4 C 11,2 C 7,4 C 89 % 1006,2 hPa 0,0 l/m 0,43 h 0,00 h 249 W/m 8,9 km/h (2 Bft) 98,22 %
27.10.2018 13:00 9,5 C 10,0 C 8,3 C 83 % 1006,3 hPa 0,0 l/m 0,50 h 0,00 h 276 W/m 7,5 km/h (2 Bft) 96,60 %
27.10.2018 14:00 9,6 C 9,5 C 8,5 C 81 % 1006,6 hPa 0,0 l/m 0,03 h 0,00 h 131 W/m 7,1 km/h (2 Bft) 96,56 %
27.10.2018 15:00 10,1 C 10,5 C 9,2 C 80 % 1006,4 hPa 0,0 l/m 0,67 h 0,00 h 238 W/m 8,0 km/h (2 Bft) 99,77 %
27.10.2018 16:00 10,0 C 9,2 C 8,6 C 79 % 1006,7 hPa 0,0 l/m 0,23 h 0,00 h 85 W/m 7,7 km/h (2 Bft) 95,62 %
27.10.2018 17:00 8,9 C 8,0 C 7,7 C 82 % 1007,2 hPa 0,0 l/m 0,00 h 0,00 h 27 W/m 5,8 km/h (2 Bft) 97,52 %
27.10.2018 18:00 8,1 C 6,9 C 6,7 C 84 % 1007,8 hPa 0,4 l/m 0,00 h 0,30 h 6 W/m 2,1 km/h (1 Bft) 99,08 %
27.10.2018 19:00 7,6 C 6,0 C 5,7 C 89 % 1008,4 hPa 0,2 l/m 0,00 h 0,43 h 0 W/m 0,8 km/h (0 Bft) 96,63 %
27.10.2018 20:00 7,1 C 5,8 C 5,6 C 91 % 1008,8 hPa 0,0 l/m 0,00 h 0,10 h 0 W/m 0,0 km/h (0 Bft) 96,87 %
27.10.2018 21:00 6,7 C 5,6 C 5,7 C 92 % 1009,3 hPa 0,2 l/m 0,00 h 0,43 h 0 W/m 1,3 km/h (1 Bft) 96,56 %
27.10.2018 22:00 6,5 C 5,6 C 5,6 C 93 % 1009,3 hPa 0,0 l/m 0,00 h 0,00 h 0 W/m 0,0 km/h (0 Bft) 98,12 %
27.10.2018 23:00 6,2 C 5,0 C 5,0 C 94 % 1009,8 hPa 0,0 l/m 0,00 h 0,00 h 0 W/m 0,3 km/h (0 Bft) 98,28 %
28.10.2018 00:00 5,5 C 4,3 C 4,4 C 94 % 1010,2 hPa 0,0 l/m 0,00 h 0,00 h 0 W/m 3,3 km/h (1 Bft) 97,34 %
28.10.2018 01:00 5,0 C 3,9 C 4,1 C 95 % 1010,6 hPa 0,2 l/m 0,00 h 0,00 h 0 W/m 8,0 km/h (2 Bft) 96,88 %
28.10.2018 02:00 4,3 C 3,3 C 3,5 C 95 % 1011,2 hPa 0,0 l/m 0,00 h 0,00 h 0 W/m 14,6 km/h (3 Bft) 98,21 %
28.10.2018 03:00 3,4 C 2,5 C 2,7 C 95 % 1011,7 hPa 0,0 l/m 0,00 h 0,00 h 0 W/m 15,0 km/h (3 Bft) 96,66 %
28.10.2018 04:00 2,9 C 2,0 C 2,2 C 94 % 1011,7 hPa 0,0 l/m 0,00 h 0,00 h 0 W/m 12,2 km/h (2 Bft) 95,31 %
28.10.2018 05:00 2,6 C 1,8 C 2,2 C 94 % 1012,6 hPa 0,0 l/m 0,00 h 0,00 h 0 W/m 13,6 km/h (3 Bft) 98,58 %
28.10.2018 06:00 2,8 C 2,2 C 2,4 C 94 % 1012,9 hPa 0,0 l/m 0,00 h 0,00 h 0 W/m 13,1 km/h (3 Bft) 94,07 %
28.10.2018 07:00 2,6 C 2,1 C 2,2 C 94 % 1013,1 hPa 0,0 l/m 0,00 h 0,00 h 9 W/m 12,2 km/h (2 Bft) 98,94 %
28.10.2018 08:00 2,5 C 2,7 C 2,4 C 94 % 1013,3 hPa 0,0 l/m 0,00 h 0,00 h 61 W/m 11,8 km/h (2 Bft) 96,69 %
28.10.2018 09:00 3,3 C 4,2 C 3,2 C 94 % 1013,4 hPa 0,0 l/m 0,07 h 0,00 h 126 W/m 12,8 km/h (3 Bft) 96,34 %
28.10.2018 10:00 4,0 C 5,3 C 3,5 C 92 % 1013,4 hPa 0,0 l/m 0,00 h 0,00 h 137 W/m 16,7 km/h (3 Bft) 99,48 %
28.10.2018 11:00 4,6 C 5,5 C 4,1 C 87 % 1013,5 hPa 0,0 l/m 0,40 h 0,00 h 198 W/m 21,5 km/h (4 Bft) 94,99 %
28.10.2018 12:00 5,4 C 6,0 C 4,8 C 82 % 1013,4 hPa 0,0 l/m 0,23 h 0,00 h 198 W/m 17,8 km/h (3 Bft) 97,97 %
28.10.2018 13:00 6,3 C 6,8 C 5,5 C 76 % 1013,1 hPa 0,0 l/m 0,30 h 0,00 h 159 W/m 21,6 km/h (4 Bft) 98,82 %
28.10.2018 14:00 6,6 C 6,7 C 5,6 C 73 % 1012,6 hPa 0,0 l/m 0,97 h 0,00 h 318 W/m 23,0 km/h (4 Bft) 95,73 %
28.10.2018 15:00 6,4 C 6,0 C 5,3 C 73 % 1012,8 hPa 0,0 l/m 0,43 h 0,00 h 118 W/m 21,1 km/h (4 Bft) 96,92 %
28.10.2018 16:00 6,0 C 5,6 C 5,0 C 74 % 1012,4 hPa 0,0 l/m 0,17 h 0,00 h 32 W/m 19,5 km/h (3 Bft) 98,97 %
28.10.2018 17:00 5,7 C 5,3 C 5,0 C 75 % 1012,9 hPa 0,0 l/m 0,00 h 0,00 h 1 W/m 21,1 km/h (4 Bft) 96,68 %
28.10.2018 18:00 5,7 C 5,0 C 5,0 C 76 % 1012,7 hPa 0,0 l/m 0,00 h 0,00 h 0 W/m 19,1 km/h (3 Bft) 96,11 %
28.10.2018 19:00 5,5 C 5,0 C 4,6 C 77 % 1012,3 hPa 0,0 l/m 0,00 h 0,00 h 0 W/m 16,9 km/h (3 Bft) 97,45 %
28.10.2018 20:00 5,3 C 5,0 C 4,4 C 79 % 1012,1 hPa 0,0 l/m 0,00 h 0,00 h 0 W/m 15,2 km/h (3 Bft) 96,52 %
28.10.2018 21:00 5,2 C 4,6 C 4,4 C 81 % 1011,7 hPa 0,0 l/m 0,00 h 0,00 h 0 W/m 14,5 km/h (3 Bft) 99,39 %
28.10.2018 22:00 5,1 C 4,4 C 4,4 C 83 % 1011,0 hPa 0,0 l/m 0,00 h 0,00 h 0 W/m 14,8 km/h (3 Bft) 95,12 %
28.10.2018 23:00 5,0 C 4,4 C 4,4 C 85 % 1010,0 hPa 0,0 l/m 0,00 h 0,00 h 0 W/m 19,5 km/h (3 Bft) 97,34 %
Min-Datum _ 28.10.18 28.10.18 28.10.18 22.10.18 26.10.18 - - - - 22.10.18 25.10.18
_ Min-Zeit 07:48 04:22 03:50 15:50 18:08 - - - - 00:00 00:02
Minimum _ 2,4 C 1,7 C 2,2 C 64 % 1003,1 hPa - - - - 0,0 km/h (0 Bft) 9,52 %
Max-Datum _ 24.10.18 24.10.18 24.10.18 24.10.18 22.10.18 22.10.18 22.10.18 27.10.18 23.10.18 28.10.18 22.10.18
_ Max-Zeit 14:38 12:14 14:32 08:44 20:42 09:42 13:08 05:19 13:34 14:24 00:00
Maximum _ 16,0 C 16,7 C 15,0 C 98 % 1031,4 hPa 0,4 l/m 0,07 h 0,08 h 609 W/m 51,5 km/h
O (7 Bft)
100,00 %
Durchschnitt _ 9,7 C 9,2 C 8,8 C 88 % 1016,6 hPa #4,0 l/m #8:36 h #6:10 h 93 W/m 10,2 km/h (2 Bft) 97,39 %
© 2018 W. Hausmann